首页
METAR-TAF:

METAR-TAF

机场 :

Imperial County Airport (Boley Field)

Imperial, 加利福尼亚州, 美国

纬度: 32-50-03N, 经度: 115-34-43W, 海拔: 17米

当前天气观测

该预报发布于58分钟前的03:53 UTC
风速19节,风向西,有时为30节阵风
温度 27°C
湿度 20%
气压 1008 hPa
能見度: 16.1公里
天空无云

METAR: KIPL 190353Z AUTO 26019G30KT 10SM CLR 27/02 A2978 RMK AO2 PK WND 26030/0346 SLP086 T02670022

时间: 21:51 (04:51 UTC)

预报

该预报发布于5小时和26分钟前的23:25 UTC
预报有效从19日的 00点(UTC)到 19日的 24点(UTC)
风速19节,风向西,有时为29节阵风
能見度: 10公里
天空无云
从 19日的 0600点(UTC)
风速12节,风向西
能見度: 10公里
天空无云
从 19日的 2200点(UTC)
风速19节,风向西,有时为29节阵风
能見度: 10公里
天空无云

TAF: KIPL 182325Z 1900/1924 26019G29KT P6SM SKC FM190600 26012KT P6SM SKC FM192200 26019G29KT P6SM SKC

超过4000个机场的气象观测和天气预报(METAR&TAF报告)。

可查询的气象台以黄色和红色小点在地图上表示。

将鼠标移到小点上方,可查看气象台名称。

然后点击查看天气观测和预报。

如需切换地图:点击带黑十字的绿色按钮放大地图;点击带横线的绿色按钮缩小地图;或者点击绿色箭头查看邻近地区的地图。


METAR-TAF: